createdAt,value
2018-12-22T00:03:03.926Z,10.10
2018-12-22T00:07:07.861Z,10.03
2018-12-22T00:11:11.903Z,10.06
2018-12-22T00:15:15.886Z,9.97
2018-12-22T00:19:19.822Z,9.86
2018-12-22T00:23:23.858Z,9.89
2018-12-22T00:27:27.855Z,9.83
2018-12-22T00:31:31.928Z,9.80
2018-12-22T00:35:35.872Z,9.78
2018-12-22T00:39:39.827Z,9.80
2018-12-22T00:43:43.787Z,9.81
2018-12-22T00:47:47.718Z,9.87
2018-12-22T00:51:51.700Z,9.81
2018-12-22T00:55:55.780Z,9.66
2018-12-22T00:59:59.674Z,9.67
2018-12-22T01:04:03.850Z,9.66
2018-12-22T01:08:07.832Z,9.81
2018-12-22T01:12:12.040Z,9.83
2018-12-22T01:16:15.974Z,9.85
2018-12-22T01:20:19.983Z,9.96
2018-12-22T01:25:26.643Z,9.96
2018-12-22T01:29:30.710Z,9.95
2018-12-22T01:33:34.931Z,9.84
2018-12-22T01:37:38.967Z,9.98
2018-12-22T01:41:42.945Z,10.01
2018-12-22T01:45:46.842Z,10.04
2018-12-22T01:49:50.795Z,10.02
2018-12-22T01:53:54.859Z,10.02
2018-12-22T01:57:58.810Z,10.04
2018-12-22T02:02:02.711Z,9.96
2018-12-22T02:06:06.715Z,9.99
2018-12-22T02:10:10.768Z,9.98
2018-12-22T02:14:14.823Z,9.97
2018-12-22T02:18:19.006Z,10.00
2018-12-22T02:22:22.936Z,9.98
2018-12-22T02:26:26.880Z,10.08
2018-12-22T02:30:30.895Z,10.05
2018-12-22T02:34:35.063Z,10.03
2018-12-22T02:38:39.070Z,10.01
2018-12-22T02:42:43.083Z,10.15
2018-12-22T02:46:47.203Z,10.05
2018-12-22T02:50:51.194Z,10.08
2018-12-22T02:54:55.144Z,10.08
2018-12-22T02:59:05.965Z,10.03
2018-12-22T03:03:04.990Z,9.92
2018-12-22T03:07:08.909Z,9.83
2018-12-22T03:11:12.800Z,9.69
2018-12-22T03:15:16.734Z,9.57
2018-12-22T03:19:20.711Z,9.51
2018-12-22T03:23:24.709Z,9.44
2018-12-22T03:27:28.717Z,9.34
2018-12-22T03:31:32.661Z,9.24
2018-12-22T03:35:36.604Z,9.13
2018-12-22T03:39:40.670Z,9.03
2018-12-22T03:43:44.659Z,8.97
2018-12-22T03:47:48.671Z,9.00
2018-12-22T03:51:52.721Z,8.99
2018-12-22T03:55:56.749Z,9.06
2018-12-22T04:00:00.769Z,9.10
2018-12-22T04:04:05.032Z,9.14
2018-12-22T04:08:08.993Z,9.24
2018-12-22T04:12:12.931Z,9.29
2018-12-22T04:16:16.860Z,9.23
2018-12-22T04:20:20.791Z,9.14
2018-12-22T04:24:24.719Z,9.15
2018-12-22T04:28:28.623Z,9.18
2018-12-22T04:32:32.565Z,9.27
2018-12-22T04:36:36.514Z,9.32
2018-12-22T04:40:40.497Z,9.39
2018-12-22T04:44:44.427Z,9.36
2018-12-22T04:48:48.364Z,9.41
2018-12-22T04:52:52.375Z,9.42
2018-12-22T04:56:56.326Z,9.55
2018-12-22T05:01:00.368Z,9.67
2018-12-22T05:05:04.518Z,9.80
2018-12-22T05:09:08.541Z,9.83
2018-12-22T05:13:12.541Z,9.89
2018-12-22T05:17:16.469Z,10.07
2018-12-22T05:21:20.409Z,10.09
2018-12-22T05:25:24.339Z,10.16
2018-12-22T05:29:28.264Z,10.20
2018-12-22T05:33:32.206Z,10.23
2018-12-22T05:37:36.161Z,10.31
2018-12-22T05:41:40.191Z,10.21
2018-12-22T05:45:44.133Z,10.08
2018-12-22T05:49:48.087Z,10.08
2018-12-22T05:53:52.062Z,10.03
2018-12-22T05:57:56.032Z,9.84
2018-12-22T06:02:00.160Z,9.84
2018-12-22T06:06:04.180Z,9.77
2018-12-22T06:10:08.373Z,9.74
2018-12-22T06:14:12.291Z,9.76
2018-12-22T06:18:16.373Z,9.73
2018-12-22T06:22:20.339Z,9.81
2018-12-22T06:26:24.271Z,9.74
2018-12-22T06:30:34.783Z,9.69
2018-12-22T06:34:38.843Z,9.64
2018-12-22T06:38:42.787Z,9.65
2018-12-22T06:42:46.715Z,9.69
2018-12-22T06:46:50.647Z,9.69
2018-12-22T06:50:54.575Z,9.77
2018-12-22T06:54:58.491Z,9.72
2018-12-22T06:59:02.419Z,9.73
2018-12-22T07:03:06.474Z,9.74
2018-12-22T07:07:10.372Z,9.78
2018-12-22T07:11:14.279Z,9.64
2018-12-22T07:15:18.210Z,9.60
2018-12-22T07:19:22.227Z,9.59
2018-12-22T07:23:26.251Z,9.58
2018-12-22T07:27:31.224Z,9.55
2018-12-22T07:31:35.116Z,9.58
2018-12-22T07:35:39.067Z,9.51
2018-12-22T07:39:43.007Z,9.46
2018-12-22T07:43:46.942Z,9.42
2018-12-22T07:47:50.875Z,9.38
2018-12-22T07:51:54.841Z,9.41
2018-12-22T07:55:58.771Z,9.34
2018-12-22T08:00:02.826Z,9.21
2018-12-22T08:04:06.907Z,9.15
2018-12-22T08:08:10.823Z,9.06
2018-12-22T08:12:14.812Z,9.13
2018-12-22T08:16:18.783Z,9.21
2018-12-22T08:20:22.878Z,9.19
2018-12-22T08:24:27.034Z,9.20
2018-12-22T08:28:30.987Z,9.34
2018-12-22T08:32:36.159Z,9.30
2018-12-22T08:36:40.118Z,9.31
2018-12-22T08:40:44.122Z,9.33
2018-12-22T08:44:48.145Z,9.29
2018-12-22T08:48:52.197Z,9.33
2018-12-22T08:52:56.119Z,9.47
2018-12-22T08:56:59.999Z,9.47
2018-12-22T09:01:04.042Z,9.45
2018-12-22T09:05:08.220Z,9.50
2018-12-22T09:09:12.190Z,9.64
2018-12-22T09:13:20.770Z,9.49
2018-12-22T09:17:22.034Z,9.54
2018-12-22T09:21:26.022Z,9.60
2018-12-22T09:25:30.020Z,10.00
2018-12-22T09:29:33.977Z,10.18
2018-12-22T09:33:37.923Z,10.40
2018-12-22T09:37:41.849Z,10.22
2018-12-22T09:41:45.826Z,10.14
2018-12-22T09:45:49.819Z,9.98
2018-12-22T09:49:53.898Z,9.92
2018-12-22T09:53:57.928Z,9.87
2018-12-22T09:58:01.877Z,9.84
2018-12-22T10:02:05.784Z,9.80
2018-12-22T10:06:09.702Z,9.70
2018-12-22T10:10:17.447Z,9.79
2018-12-22T10:14:21.548Z,9.85
2018-12-22T10:18:25.498Z,9.84
2018-12-22T10:22:29.403Z,9.62
2018-12-22T10:26:33.439Z,8.97
2018-12-22T10:30:37.346Z,8.73
2018-12-22T10:34:41.379Z,8.68
2018-12-22T10:38:45.288Z,8.74
2018-12-22T10:42:49.190Z,8.74
2018-12-22T10:46:53.150Z,8.72
2018-12-22T10:50:57.106Z,8.80
2018-12-22T10:55:01.182Z,8.95
2018-12-22T10:59:05.315Z,9.23
2018-12-22T11:03:09.478Z,9.58
2018-12-22T11:07:14.508Z,9.36
2018-12-22T11:11:18.488Z,9.46
2018-12-22T11:15:22.515Z,9.59
2018-12-22T11:19:26.476Z,9.83
2018-12-22T11:23:30.440Z,9.87
2018-12-22T11:27:34.433Z,9.92
2018-12-22T11:31:38.420Z,10.00
2018-12-22T11:35:42.379Z,10.07
2018-12-22T11:39:46.326Z,10.17
2018-12-22T11:43:50.266Z,10.30
2018-12-22T11:49:14.798Z,10.38
2018-12-22T11:53:18.746Z,10.35
2018-12-22T11:57:22.710Z,10.32
2018-12-22T12:01:26.741Z,10.34
2018-12-22T12:05:30.764Z,10.48
2018-12-22T12:09:34.784Z,10.48
2018-12-22T12:13:38.762Z,10.46
2018-12-22T12:17:55.148Z,10.45
2018-12-22T12:21:59.274Z,10.38
2018-12-22T12:26:03.247Z,10.47
2018-12-22T12:30:09.914Z,10.43
2018-12-22T12:34:13.882Z,10.50
2018-12-22T12:38:17.816Z,10.40
2018-12-22T12:42:21.843Z,10.45
2018-12-22T12:46:45.543Z,10.51
2018-12-22T12:50:49.622Z,10.73
2018-12-22T12:54:53.627Z,10.58
2018-12-22T12:58:57.515Z,10.96
2018-12-22T13:03:01.460Z,11.38
2018-12-22T13:07:05.454Z,10.84
2018-12-22T13:11:09.537Z,10.76
2018-12-22T13:15:13.750Z,11.36
2018-12-22T13:19:17.855Z,11.39
2018-12-22T13:23:21.910Z,11.69
2018-12-22T13:27:25.941Z,11.66
2018-12-22T13:31:30.061Z,11.72
2018-12-22T13:35:35.075Z,12.08
2018-12-22T13:39:39.055Z,11.64
2018-12-22T13:43:42.947Z,11.76
2018-12-22T13:47:46.950Z,11.13
2018-12-22T13:51:51.114Z,10.91
2018-12-22T13:55:55.180Z,10.84
2018-12-22T13:59:59.127Z,10.72
2018-12-22T14:04:03.186Z,10.71
2018-12-22T14:08:07.218Z,10.57
2018-12-22T14:12:11.194Z,10.43
2018-12-22T14:16:24.684Z,10.44
2018-12-22T14:20:29.886Z,10.27
2018-12-22T14:24:38.107Z,10.29
2018-12-22T14:28:42.086Z,10.32
2018-12-22T14:32:46.071Z,10.36
2018-12-22T14:36:50.133Z,10.38
2018-12-22T14:40:55.283Z,10.40
2018-12-22T14:44:59.316Z,10.58
2018-12-22T14:49:03.339Z,10.62
2018-12-22T14:53:07.295Z,10.81
2018-12-22T14:57:12.041Z,10.77
2018-12-22T15:01:16.220Z,10.47
2018-12-22T15:05:20.368Z,10.45
2018-12-22T15:09:24.258Z,10.25
2018-12-22T15:13:28.199Z,10.15
2018-12-22T15:17:32.291Z,10.18
2018-12-22T15:21:36.344Z,10.14
2018-12-22T15:25:40.318Z,10.08
2018-12-22T15:29:44.279Z,10.12
2018-12-22T15:33:48.243Z,10.04
2018-12-22T15:37:52.310Z,9.96
2018-12-22T15:41:56.300Z,9.81
2018-12-22T15:46:00.351Z,9.82
2018-12-22T15:50:05.487Z,9.82
2018-12-22T15:54:09.491Z,9.69
2018-12-22T15:58:13.526Z,9.70
2018-12-22T16:02:18.832Z,9.49
2018-12-22T16:06:23.986Z,9.66
2018-12-22T16:10:34.331Z,9.60
2018-12-22T16:14:38.263Z,9.38
2018-12-22T16:18:42.234Z,9.42
2018-12-22T16:22:50.066Z,9.36
2018-12-22T16:26:54.050Z,9.33
2018-12-22T16:30:58.927Z,9.29
2018-12-22T16:35:02.923Z,9.18
2018-12-22T16:39:08.295Z,9.13
2018-12-22T16:43:13.882Z,9.25
2018-12-22T16:47:17.878Z,9.20
2018-12-22T16:51:22.015Z,9.10
2018-12-22T16:55:26.378Z,9.10
2018-12-22T16:59:32.590Z,9.03
2018-12-22T17:03:36.617Z,9.08
2018-12-22T17:07:40.683Z,9.08
2018-12-22T17:11:44.625Z,9.00
2018-12-22T17:15:52.307Z,9.01
2018-12-22T17:19:56.393Z,8.98
2018-12-22T17:24:23.000Z,8.87
2018-12-22T17:28:28.505Z,8.79
2018-12-22T17:32:32.687Z,8.82
2018-12-22T17:36:36.790Z,8.74
2018-12-22T17:40:40.811Z,8.71
2018-12-22T17:44:44.803Z,8.79
2018-12-22T17:48:48.874Z,8.85
2018-12-22T17:52:52.850Z,8.80
2018-12-22T17:56:56.818Z,8.85
2018-12-22T18:01:00.818Z,8.85
2018-12-22T18:09:39.167Z,9.00
2018-12-22T18:13:43.150Z,8.98
2018-12-22T18:17:47.227Z,8.93
2018-12-22T18:21:51.182Z,9.06
2018-12-22T18:25:55.134Z,8.99
2018-12-22T18:29:59.096Z,8.91
2018-12-22T18:34:03.076Z,8.92
2018-12-22T18:38:07.094Z,8.97
2018-12-22T18:42:11.253Z,8.85
2018-12-22T18:46:15.247Z,8.73
2018-12-22T18:50:22.834Z,8.73
2018-12-22T18:54:26.796Z,8.63
2018-12-22T18:58:30.799Z,8.62
2018-12-22T19:02:34.762Z,8.53
2018-12-22T19:06:38.942Z,8.48
2018-12-22T19:10:51.898Z,8.42
2018-12-22T19:14:55.891Z,8.38
2018-12-22T19:18:59.918Z,8.40
2018-12-22T19:23:03.992Z,8.40
2018-12-22T19:27:07.971Z,8.48
2018-12-22T19:31:11.967Z,8.50
2018-12-22T19:35:16.129Z,8.42
2018-12-22T19:39:20.047Z,8.38
2018-12-22T19:43:24.970Z,8.33
2018-12-22T19:47:28.932Z,8.14
2018-12-22T19:51:32.931Z,8.06
2018-12-22T19:55:36.919Z,7.98
2018-12-22T19:59:40.912Z,7.92
2018-12-22T20:03:44.989Z,7.98
2018-12-22T20:07:49.103Z,7.94
2018-12-22T20:11:53.247Z,7.86
2018-12-22T20:15:57.395Z,7.91
2018-12-22T20:20:01.353Z,7.70
2018-12-22T20:24:06.586Z,7.64
2018-12-22T20:28:10.659Z,7.48
2018-12-22T20:32:14.691Z,7.49
2018-12-22T20:36:18.852Z,7.48
2018-12-22T20:40:22.808Z,7.42
2018-12-22T20:44:26.849Z,7.44
2018-12-22T20:48:30.796Z,7.36
2018-12-22T20:52:34.787Z,7.43
2018-12-22T20:56:38.759Z,7.53
2018-12-22T21:00:42.676Z,7.56
2018-12-22T21:04:46.735Z,7.62
2018-12-22T21:08:50.818Z,7.56
2018-12-22T21:12:54.806Z,7.57
2018-12-22T21:16:59.245Z,7.61
2018-12-22T21:21:03.195Z,7.61
2018-12-22T21:25:07.378Z,7.59
2018-12-22T21:29:11.406Z,7.66
2018-12-22T21:33:15.428Z,7.73
2018-12-22T21:41:54.713Z,7.59
2018-12-22T21:45:58.666Z,7.69
2018-12-22T21:50:02.619Z,7.76
2018-12-22T21:54:06.760Z,7.64
2018-12-22T21:58:10.791Z,7.67
2018-12-22T22:02:14.793Z,7.55
2018-12-22T22:06:18.718Z,7.55
2018-12-22T22:10:22.871Z,7.53
2018-12-22T22:14:26.851Z,7.53
2018-12-22T22:18:30.914Z,7.56
2018-12-22T22:22:34.866Z,7.51
2018-12-22T22:26:38.884Z,7.60
2018-12-22T22:30:42.888Z,7.67
2018-12-22T22:34:46.847Z,7.59
2018-12-22T22:38:50.790Z,7.66
2018-12-22T22:42:54.751Z,7.73
2018-12-22T22:46:58.801Z,7.74
2018-12-22T22:51:02.866Z,7.71
2018-12-22T22:55:06.882Z,7.68
2018-12-22T22:59:10.919Z,7.58
2018-12-22T23:03:15.070Z,7.64
2018-12-22T23:07:18.998Z,7.61
2018-12-22T23:11:22.954Z,7.50
2018-12-22T23:15:26.920Z,7.39
2018-12-22T23:19:30.831Z,7.41
2018-12-22T23:23:34.802Z,7.43
2018-12-22T23:27:38.721Z,7.33
2018-12-22T23:31:42.771Z,7.36
2018-12-22T23:35:46.718Z,7.33
2018-12-22T23:39:50.644Z,7.23
2018-12-22T23:43:54.575Z,7.30
2018-12-22T23:47:58.515Z,7.26
2018-12-22T23:56:37.314Z,7.26
